createdAt,value
2022-07-31T00:00:53.172Z,99435.19
2022-07-31T00:03:21.348Z,99443.47
2022-07-31T00:05:50.907Z,99444.34
2022-07-31T00:08:19.141Z,99439.16
2022-07-31T00:10:47.251Z,99436.25
2022-07-31T00:13:15.375Z,99430.78
2022-07-31T00:15:43.505Z,99432.03
2022-07-31T00:18:12.244Z,99426.19
2022-07-31T00:20:40.424Z,99448.25
2022-07-31T00:23:10.977Z,99446.19
2022-07-31T00:25:39.660Z,99431.41
2022-07-31T00:28:08.360Z,99427.03
2022-07-31T00:30:36.542Z,99427.25
2022-07-31T00:33:05.290Z,99447.84
2022-07-31T00:35:33.359Z,99452.47
2022-07-31T00:38:25.617Z,99449.50
2022-07-31T00:40:51.195Z,99455.56
2022-07-31T00:43:19.733Z,99446.00
2022-07-31T00:45:49.374Z,99443.94
2022-07-31T00:48:27.584Z,99449.31
2022-07-31T00:50:56.241Z,99432.47
2022-07-31T00:53:24.436Z,99447.84
2022-07-31T00:55:54.043Z,99438.84
2022-07-31T00:58:22.151Z,99433.69
2022-07-31T01:00:51.248Z,99447.06
2022-07-31T01:03:19.846Z,99444.94
2022-07-31T01:05:47.965Z,99442.06
2022-07-31T01:08:16.614Z,99445.59
2022-07-31T01:10:51.985Z,99439.13
2022-07-31T01:13:28.090Z,99441.16
2022-07-31T01:15:58.695Z,99438.72
2022-07-31T01:18:28.135Z,99433.41
2022-07-31T01:20:57.591Z,99419.09
2022-07-31T01:24:05.348Z,99429.91
2022-07-31T01:27:00.710Z,99429.09
2022-07-31T01:29:31.951Z,99436.63
2022-07-31T01:32:03.282Z,99418.66
2022-07-31T01:34:36.399Z,99419.47
2022-07-31T01:37:13.896Z,99456.03
2022-07-31T01:39:45.367Z,99404.44
2022-07-31T01:42:15.635Z,99421.97
2022-07-31T01:44:46.623Z,99415.72
2022-07-31T01:47:18.663Z,99427.38
2022-07-31T01:49:47.698Z,99430.69
2022-07-31T01:52:19.385Z,99414.84
2022-07-31T01:54:48.942Z,99419.00
2022-07-31T01:57:18.735Z,99429.09
2022-07-31T01:59:55.804Z,99419.81
2022-07-31T02:02:47.037Z,99455.38
2022-07-31T02:05:17.262Z,99428.38
2022-07-31T02:07:46.581Z,99436.38
2022-07-31T02:10:17.121Z,99427.34
2022-07-31T02:12:46.459Z,99428.72
2022-07-31T02:15:17.763Z,99436.53
2022-07-31T02:17:47.624Z,99444.25
2022-07-31T02:20:36.438Z,99420.03
2022-07-31T02:23:04.564Z,99468.56
2022-07-31T02:25:33.324Z,99423.72
2022-07-31T02:28:04.949Z,99422.78
2022-07-31T02:30:38.326Z,99417.41
2022-07-31T02:33:10.121Z,99422.78
2022-07-31T02:35:39.449Z,99430.47
2022-07-31T02:38:22.201Z,99414.47
2022-07-31T02:40:59.297Z,99418.84
2022-07-31T02:43:29.902Z,99415.69
2022-07-31T02:46:02.258Z,99412.81
2022-07-31T02:48:31.128Z,99411.94
2022-07-31T02:51:03.898Z,99421.16
2022-07-31T02:53:32.892Z,99410.06
2022-07-31T02:56:04.815Z,99433.59
2022-07-31T02:58:42.016Z,99432.19
2022-07-31T03:01:17.257Z,99415.69
2022-07-31T03:03:47.040Z,99466.47
2022-07-31T03:06:16.439Z,99425.47
2022-07-31T03:08:44.669Z,99434.84
2022-07-31T03:11:15.809Z,99445.22
2022-07-31T03:13:44.799Z,99423.63
2022-07-31T03:16:13.649Z,99428.09
2022-07-31T03:18:43.372Z,99450.91
2022-07-31T03:21:11.989Z,99441.75
2022-07-31T03:23:40.443Z,99434.41
2022-07-31T03:26:20.778Z,99439.50
2022-07-31T03:28:49.390Z,99448.88
2022-07-31T03:31:17.756Z,99448.56
2022-07-31T03:33:47.459Z,99461.06
2022-07-31T03:36:17.574Z,99483.09
2022-07-31T03:38:50.471Z,99481.31
2022-07-31T03:41:35.827Z,99471.69
2022-07-31T03:44:04.067Z,99466.09
2022-07-31T03:46:32.281Z,99446.31
2022-07-31T03:49:02.277Z,99456.38
2022-07-31T03:51:30.660Z,99459.66
2022-07-31T03:53:59.684Z,99464.88
2022-07-31T03:56:45.298Z,99473.97
2022-07-31T03:59:16.268Z,99460.78
2022-07-31T04:01:57.548Z,99475.50
2022-07-31T04:05:00.630Z,99470.25
2022-07-31T04:07:29.056Z,99471.06
2022-07-31T04:09:57.386Z,99478.69
2022-07-31T04:12:26.709Z,99490.72
2022-07-31T04:14:54.816Z,99476.69
2022-07-31T04:17:23.210Z,99475.94
2022-07-31T04:19:51.300Z,99484.81
2022-07-31T04:22:20.928Z,99484.06
2022-07-31T04:24:49.789Z,99484.06
2022-07-31T04:27:27.111Z,99490.41
2022-07-31T04:29:57.653Z,99490.75
2022-07-31T04:32:25.808Z,99496.88
2022-07-31T04:34:56.395Z,99503.53
2022-07-31T04:37:26.676Z,99503.78
2022-07-31T04:39:55.041Z,99526.50
2022-07-31T04:42:23.417Z,99504.78
2022-07-31T04:44:52.144Z,99500.88
2022-07-31T04:47:22.840Z,99500.50
2022-07-31T04:49:52.684Z,99502.78
2022-07-31T04:52:20.791Z,99505.72
2022-07-31T04:54:52.645Z,99499.72
2022-07-31T04:57:22.155Z,99501.94
2022-07-31T05:00:00.705Z,99506.44
2022-07-31T05:02:32.334Z,99512.97
2022-07-31T05:05:00.561Z,99514.03
2022-07-31T05:07:34.750Z,99515.06
2022-07-31T05:10:30.823Z,99504.41
2022-07-31T05:12:59.115Z,99514.41
2022-07-31T05:15:27.552Z,99506.50
2022-07-31T05:17:57.707Z,99518.63
2022-07-31T05:20:44.276Z,99509.09
2022-07-31T05:23:49.730Z,99514.91
2022-07-31T05:26:26.697Z,99510.97
2022-07-31T05:28:58.632Z,99524.84
2022-07-31T05:31:27.895Z,99524.84
2022-07-31T05:33:57.818Z,99530.88
2022-07-31T05:36:26.279Z,99529.50
2022-07-31T05:38:55.596Z,99524.09
2022-07-31T05:41:34.584Z,99521.03
2022-07-31T05:44:17.758Z,99528.72
2022-07-31T05:49:17.986Z,99529.81
2022-07-31T05:51:54.185Z,99530.53
2022-07-31T05:54:22.590Z,99523.03
2022-07-31T05:57:33.444Z,99527.81
2022-07-31T06:00:04.216Z,99529.25
2022-07-31T06:02:39.877Z,99513.22
2022-07-31T06:05:28.240Z,99520.75
2022-07-31T06:07:56.682Z,99530.97
2022-07-31T06:10:25.374Z,99517.84
2022-07-31T06:12:55.318Z,99521.38
2022-07-31T06:15:23.636Z,99533.06
2022-07-31T06:17:52.185Z,99538.09
2022-07-31T06:20:28.468Z,99532.22
2022-07-31T06:22:57.293Z,99519.75
2022-07-31T06:25:29.010Z,99515.56
2022-07-31T06:28:04.091Z,99529.78
2022-07-31T06:30:33.539Z,99524.53
2022-07-31T06:33:04.332Z,99525.16
2022-07-31T06:35:37.564Z,99533.28
2022-07-31T06:38:33.365Z,99524.31
2022-07-31T06:41:34.248Z,99531.03
2022-07-31T06:44:23.761Z,99539.16
2022-07-31T06:47:17.854Z,99523.75
2022-07-31T06:50:07.396Z,99534.19
2022-07-31T06:52:39.363Z,99527.88
2022-07-31T06:55:08.574Z,99515.75
2022-07-31T06:57:36.724Z,99527.47
2022-07-31T07:00:19.596Z,99518.03
2022-07-31T07:02:48.889Z,99522.22
2022-07-31T07:05:17.186Z,99517.63
2022-07-31T07:07:46.806Z,99517.00
2022-07-31T07:10:15.402Z,99529.56
2022-07-31T07:13:03.669Z,99514.91
2022-07-31T07:15:37.706Z,99525.75
2022-07-31T07:18:07.294Z,99520.88
2022-07-31T07:20:55.724Z,99500.59
2022-07-31T07:23:24.123Z,99510.88
2022-07-31T07:26:07.402Z,99529.25
2022-07-31T07:28:36.870Z,99513.38
2022-07-31T07:31:08.233Z,99514.75
2022-07-31T07:33:41.241Z,99521.31
2022-07-31T07:36:23.223Z,99528.63
2022-07-31T07:39:02.168Z,99511.38
2022-07-31T07:41:31.375Z,99515.31
2022-07-31T07:44:00.729Z,99511.94
2022-07-31T07:46:31.739Z,99533.84
2022-07-31T07:49:05.495Z,99504.69
2022-07-31T07:51:59.320Z,99515.81
2022-07-31T07:54:39.977Z,99505.88
2022-07-31T07:57:18.510Z,99503.94
2022-07-31T08:00:08.403Z,99510.44
2022-07-31T08:03:46.648Z,99501.88
2022-07-31T08:05:40.790Z,99502.69
2022-07-31T08:08:09.053Z,99499.75
2022-07-31T08:10:48.788Z,99514.50
2022-07-31T08:13:49.310Z,99494.47
2022-07-31T08:16:53.762Z,99512.19
2022-07-31T08:19:26.145Z,99485.81
2022-07-31T08:21:54.340Z,99499.56
2022-07-31T08:24:22.736Z,99505.03
2022-07-31T08:27:10.526Z,99480.72
2022-07-31T08:29:38.965Z,99474.28
2022-07-31T08:32:18.030Z,99483.59
2022-07-31T08:35:07.112Z,99469.75
2022-07-31T08:37:52.454Z,99500.69
2022-07-31T08:40:23.867Z,99500.69
2022-07-31T08:42:52.137Z,99485.56
2022-07-31T08:45:20.407Z,99493.63
2022-07-31T08:47:58.563Z,99486.78
2022-07-31T08:50:32.268Z,99506.63
2022-07-31T08:53:03.924Z,99503.50
2022-07-31T08:55:55.648Z,99481.41
2022-07-31T08:58:26.512Z,99486.25
2022-07-31T09:00:55.162Z,99484.22
2022-07-31T09:03:23.907Z,99501.38
2022-07-31T09:05:57.187Z,99480.38
2022-07-31T09:08:26.402Z,99505.50
2022-07-31T09:11:05.956Z,99485.13
2022-07-31T09:13:38.543Z,99500.78
2022-07-31T09:16:24.394Z,99490.34
2022-07-31T09:19:00.670Z,99488.16
2022-07-31T09:21:40.056Z,99474.31
2022-07-31T09:24:10.310Z,99476.47
2022-07-31T09:26:40.961Z,99468.59
2022-07-31T09:29:12.776Z,99461.88
2022-07-31T09:31:41.971Z,99470.31
2022-07-31T09:34:49.480Z,99466.03
2022-07-31T09:37:22.597Z,99458.69
2022-07-31T09:40:10.653Z,99451.44
2022-07-31T09:42:45.752Z,99452.88
2022-07-31T09:45:22.744Z,99451.94
2022-07-31T09:48:16.146Z,99452.31
2022-07-31T09:50:57.055Z,99447.06
2022-07-31T09:53:27.748Z,99438.50
2022-07-31T09:56:16.143Z,99446.84
2022-07-31T09:58:44.660Z,99433.41
2022-07-31T10:01:14.180Z,99435.91
2022-07-31T10:03:43.024Z,99428.78
2022-07-31T10:06:16.443Z,99426.44
2022-07-31T10:08:47.283Z,99439.19
2022-07-31T10:11:27.693Z,99432.78
2022-07-31T10:14:12.556Z,99432.47
2022-07-31T10:16:41.829Z,99440.03
2022-07-31T10:19:13.710Z,99433.63
2022-07-31T10:22:03.038Z,99445.66
2022-07-31T10:24:42.039Z,99439.22
2022-07-31T10:27:11.040Z,99412.09
2022-07-31T10:29:41.396Z,99456.06
2022-07-31T10:32:10.763Z,99418.25
2022-07-31T10:34:58.803Z,99424.66
2022-07-31T10:37:55.239Z,99413.47
2022-07-31T10:41:03.862Z,99412.69
2022-07-31T10:43:40.939Z,99416.66
2022-07-31T10:46:14.349Z,99415.19
2022-07-31T10:48:52.798Z,99441.31
2022-07-31T10:51:59.477Z,99417.56
2022-07-31T10:54:47.191Z,99429.25
2022-07-31T10:57:56.434Z,99441.69
2022-07-31T11:01:17.458Z,99406.06
2022-07-31T11:04:06.061Z,99417.84
2022-07-31T11:06:49.950Z,99423.22
2022-07-31T11:09:51.446Z,99396.06
2022-07-31T11:13:01.850Z,99400.84
2022-07-31T11:15:48.779Z,99413.78
2022-07-31T11:18:35.810Z,99407.13
2022-07-31T11:21:38.033Z,99421.94
2022-07-31T11:24:02.941Z,99394.34
2022-07-31T11:26:41.432Z,99398.16
2022-07-31T11:29:58.940Z,99406.56
2022-07-31T11:32:02.201Z,99416.84
2022-07-31T11:34:30.363Z,99406.44
2022-07-31T11:36:58.658Z,99394.66
2022-07-31T11:39:36.765Z,99410.16
2022-07-31T11:42:07.456Z,99400.72
2022-07-31T11:44:37.660Z,99406.56
2022-07-31T11:48:09.944Z,99416.09
2022-07-31T11:50:02.443Z,99393.81
2022-07-31T11:52:36.813Z,99386.53
2022-07-31T11:55:09.431Z,99389.25
2022-07-31T11:57:51.152Z,99417.53
2022-07-31T12:00:29.177Z,99426.03
2022-07-31T12:02:58.885Z,99403.44
2022-07-31T12:05:38.719Z,99407.88
2022-07-31T12:08:08.349Z,99398.16
2022-07-31T12:10:36.532Z,99392.41
2022-07-31T12:13:04.759Z,99408.28
2022-07-31T12:15:34.445Z,99404.66
2022-07-31T12:18:03.398Z,99394.16
2022-07-31T12:20:36.573Z,99391.97
2022-07-31T12:23:06.546Z,99400.63
2022-07-31T12:25:42.418Z,99388.81
2022-07-31T12:28:11.199Z,99376.13
2022-07-31T12:30:40.977Z,99385.28
2022-07-31T12:33:11.002Z,99401.78
2022-07-31T12:35:56.062Z,99369.63
2022-07-31T12:38:47.796Z,99413.13
2022-07-31T12:41:14.836Z,99378.91
2022-07-31T12:43:50.879Z,99408.03
2022-07-31T12:46:22.518Z,99374.84
2022-07-31T12:48:50.919Z,99371.84
2022-07-31T12:51:43.869Z,99380.06
2022-07-31T12:54:09.346Z,99381.38
2022-07-31T12:56:37.802Z,99371.91
2022-07-31T12:59:06.737Z,99349.97
2022-07-31T13:01:36.868Z,99358.94
2022-07-31T13:04:07.728Z,99363.91
2022-07-31T13:06:37.592Z,99371.66
2022-07-31T13:09:06.315Z,99364.09
2022-07-31T13:11:45.997Z,99390.06
2022-07-31T13:14:16.896Z,99364.84
2022-07-31T13:16:46.730Z,99358.16
2022-07-31T13:19:15.331Z,99346.66
2022-07-31T13:21:49.571Z,99345.75
2022-07-31T13:24:20.095Z,99363.38
2022-07-31T13:26:51.496Z,99346.47
2022-07-31T13:29:23.003Z,99344.09
2022-07-31T13:31:55.868Z,99342.72
2022-07-31T13:34:23.988Z,99347.78
2022-07-31T13:36:52.188Z,99353.28
2022-07-31T13:39:21.427Z,99341.00
2022-07-31T13:41:49.667Z,99331.41
2022-07-31T13:44:17.896Z,99362.66
2022-07-31T13:46:46.730Z,99331.47
2022-07-31T13:49:16.323Z,99331.41
2022-07-31T13:51:44.524Z,99340.19
2022-07-31T13:54:13.036Z,99332.72
2022-07-31T13:56:43.638Z,99333.34
2022-07-31T13:59:13.962Z,99321.88
2022-07-31T14:02:03.405Z,99333.03
2022-07-31T14:04:38.729Z,99334.75
2022-07-31T14:07:08.644Z,99346.94
2022-07-31T14:09:37.751Z,99341.28
2022-07-31T14:12:06.699Z,99339.16
2022-07-31T14:14:35.637Z,99337.88
2022-07-31T14:17:03.776Z,99325.72
2022-07-31T14:19:44.208Z,99341.28
2022-07-31T14:22:14.851Z,99324.13
2022-07-31T14:24:50.657Z,99334.75
2022-07-31T14:27:19.703Z,99337.97
2022-07-31T14:29:47.875Z,99341.94
2022-07-31T14:32:16.124Z,99323.91
2022-07-31T14:34:47.363Z,99325.06
2022-07-31T14:37:17.984Z,99340.56
2022-07-31T14:39:46.133Z,99337.53
2022-07-31T14:42:14.473Z,99331.13
2022-07-31T14:44:42.870Z,99330.44
2022-07-31T14:47:11.419Z,99322.91
2022-07-31T14:50:08.882Z,99323.19
2022-07-31T14:52:29.261Z,99319.03
2022-07-31T14:54:59.082Z,99324.88
2022-07-31T14:57:27.774Z,99351.66
2022-07-31T14:59:55.939Z,99320.44
2022-07-31T15:02:24.235Z,99323.72
2022-07-31T15:04:53.046Z,99334.44
2022-07-31T15:07:43.571Z,99331.94
2022-07-31T15:10:12.418Z,99331.69
2022-07-31T15:12:40.731Z,99334.06
2022-07-31T15:15:10.010Z,99328.78
2022-07-31T15:17:38.204Z,99335.41
2022-07-31T15:20:07.336Z,99328.19
2022-07-31T15:22:35.414Z,99325.06
2022-07-31T15:25:03.609Z,99318.53
2022-07-31T15:27:33.254Z,99325.47
2022-07-31T15:30:06.978Z,99323.91
2022-07-31T15:32:37.129Z,99323.06
2022-07-31T15:35:06.693Z,99319.03
2022-07-31T15:37:36.427Z,99306.50
2022-07-31T15:40:06.686Z,99322.06
2022-07-31T15:42:40.156Z,99306.59
2022-07-31T15:45:10.558Z,99316.19
2022-07-31T15:47:39.298Z,99313.28
2022-07-31T15:50:09.820Z,99306.69
2022-07-31T15:52:41.240Z,99310.09
2022-07-31T15:55:12.683Z,99292.19
2022-07-31T15:57:42.518Z,99294.66
2022-07-31T16:00:12.339Z,99298.13
2022-07-31T16:02:41.611Z,99303.50
2022-07-31T16:05:21.432Z,99300.75
2022-07-31T16:08:32.082Z,99291.63
2022-07-31T16:10:51.136Z,99291.09
2022-07-31T16:13:23.907Z,99291.53
2022-07-31T16:15:55.628Z,99293.22
2022-07-31T16:18:23.836Z,99304.19
2022-07-31T16:20:53.106Z,99295.66
2022-07-31T16:23:21.467Z,99308.31
2022-07-31T16:25:49.580Z,99297.22
2022-07-31T16:28:17.736Z,99300.75
2022-07-31T16:30:47.258Z,99311.28
2022-07-31T16:33:15.617Z,99294.25
2022-07-31T16:35:44.215Z,99291.53
2022-07-31T16:38:12.874Z,99296.09
2022-07-31T16:40:41.114Z,99305.03
2022-07-31T16:43:47.311Z,99298.66
2022-07-31T16:45:59.339Z,99297.84
2022-07-31T16:48:27.528Z,99299.84
2022-07-31T16:50:55.793Z,99305.97
2022-07-31T16:54:10.780Z,99303.38
2022-07-31T16:56:13.031Z,99303.63
2022-07-31T16:58:41.286Z,99292.22
2022-07-31T17:01:54.044Z,99299.84
2022-07-31T17:04:08.624Z,99304.16
2022-07-31T17:06:38.235Z,99299.22
2022-07-31T17:09:16.597Z,99313.66
2022-07-31T17:11:51.161Z,99304.16
2022-07-31T17:14:21.483Z,99300.31
2022-07-31T17:16:51.820Z,99305.50
2022-07-31T17:19:41.019Z,99305.06
2022-07-31T17:22:18.110Z,99314.81
2022-07-31T17:24:51.067Z,99312.50
2022-07-31T17:27:20.911Z,99322.78
2022-07-31T17:29:49.225Z,99325.69
2022-07-31T17:32:18.774Z,99322.28
2022-07-31T17:34:49.376Z,99314.56
2022-07-31T17:37:18.270Z,99324.13
2022-07-31T17:39:47.478Z,99317.13
2022-07-31T17:42:15.792Z,99325.09
2022-07-31T17:44:46.900Z,99326.78
2022-07-31T17:47:20.250Z,99328.00
2022-07-31T17:49:49.054Z,99332.91
2022-07-31T17:52:17.500Z,99335.66
2022-07-31T17:54:45.747Z,99330.56
2022-07-31T17:57:13.880Z,99333.09
2022-07-31T17:59:42.204Z,99337.47
2022-07-31T18:02:11.058Z,99335.34
2022-07-31T18:04:40.917Z,99337.69
2022-07-31T18:07:11.358Z,99332.38
2022-07-31T18:09:39.549Z,99331.34
2022-07-31T18:12:13.504Z,99336.44
2022-07-31T18:14:43.607Z,99337.66
2022-07-31T18:17:11.807Z,99337.75
2022-07-31T18:19:41.398Z,99343.03
2022-07-31T18:22:09.661Z,99343.97
2022-07-31T18:24:38.214Z,99347.66
2022-07-31T18:27:07.623Z,99348.69
2022-07-31T18:29:35.971Z,99349.59
2022-07-31T18:32:06.865Z,99346.84
2022-07-31T18:34:35.186Z,99359.66
2022-07-31T18:37:04.821Z,99359.81
2022-07-31T18:39:33.142Z,99348.78
2022-07-31T18:42:16.144Z,99342.06
2022-07-31T18:44:44.471Z,99353.28
2022-07-31T18:47:12.703Z,99355.03
2022-07-31T18:51:00.946Z,99351.44
2022-07-31T18:52:30.751Z,99361.00
2022-07-31T18:54:58.927Z,99365.53
2022-07-31T18:57:27.117Z,99363.72
2022-07-31T18:59:55.281Z,99364.69
2022-07-31T19:02:23.739Z,99368.94
2022-07-31T19:04:53.462Z,99367.69
2022-07-31T19:07:21.587Z,99367.53
2022-07-31T19:09:51.282Z,99372.91
2022-07-31T19:12:19.771Z,99367.91
2022-07-31T19:14:47.995Z,99373.84
2022-07-31T19:17:21.259Z,99372.66
2022-07-31T19:19:49.717Z,99382.16
2022-07-31T19:22:23.797Z,99375.16
2022-07-31T19:24:53.821Z,99383.00
2022-07-31T19:27:22.574Z,99381.22
2022-07-31T19:30:13.259Z,99379.09
2022-07-31T19:32:41.539Z,99383.56
2022-07-31T19:35:10.908Z,99388.94
2022-07-31T19:37:39.113Z,99386.19
2022-07-31T19:40:10.388Z,99390.72
2022-07-31T19:42:39.523Z,99387.13
2022-07-31T19:45:08.484Z,99392.09
2022-07-31T19:47:36.883Z,99393.28
2022-07-31T19:50:05.574Z,99386.75
2022-07-31T19:52:33.882Z,99385.44
2022-07-31T19:55:02.313Z,99391.13
2022-07-31T19:57:32.384Z,99383.94
2022-07-31T20:00:00.864Z,99388.09
2022-07-31T20:02:29.347Z,99388.69
2022-07-31T20:04:57.792Z,99378.13
2022-07-31T20:07:32.659Z,99386.97
2022-07-31T20:10:01.934Z,99379.81
2022-07-31T20:12:31.686Z,99385.59
2022-07-31T20:15:00.720Z,99385.25
2022-07-31T20:17:29.381Z,99377.53
2022-07-31T20:20:14.763Z,99379.19
2022-07-31T20:22:43.609Z,99384.28
2022-07-31T20:25:19.688Z,99380.50
2022-07-31T20:27:50.475Z,99382.28
2022-07-31T20:30:21.977Z,99385.97
2022-07-31T20:32:51.632Z,99385.38
2022-07-31T20:35:29.179Z,99383.34
2022-07-31T20:38:15.636Z,99383.31
2022-07-31T20:40:52.894Z,99395.88
2022-07-31T20:43:24.605Z,99381.13
2022-07-31T20:45:53.153Z,99377.13
2022-07-31T20:48:24.224Z,99384.00
2022-07-31T20:50:53.449Z,99387.91
2022-07-31T20:53:23.147Z,99382.91
2022-07-31T20:55:51.470Z,99384.56
2022-07-31T20:58:20.418Z,99381.94
2022-07-31T21:00:50.425Z,99377.06
2022-07-31T21:03:19.238Z,99381.47
2022-07-31T21:05:48.518Z,99377.63
2022-07-31T21:08:16.691Z,99376.47
2022-07-31T21:10:45.316Z,99369.56
2022-07-31T21:13:14.443Z,99376.81
2022-07-31T21:15:45.279Z,99375.47
2022-07-31T21:18:16.612Z,99378.72
2022-07-31T21:20:51.156Z,99371.22
2022-07-31T21:23:23.323Z,99382.72
2022-07-31T21:25:52.429Z,99373.63
2022-07-31T21:28:21.108Z,99374.94
2022-07-31T21:30:49.656Z,99376.97
2022-07-31T21:33:19.703Z,99372.44
2022-07-31T21:35:48.418Z,99367.56
2022-07-31T21:38:17.152Z,99374.97
2022-07-31T21:40:46.373Z,99372.63
2022-07-31T21:43:18.507Z,99370.78
2022-07-31T21:45:57.529Z,99362.16
2022-07-31T21:48:32.833Z,99360.59
2022-07-31T21:51:01.764Z,99373.25
2022-07-31T21:53:29.975Z,99369.06
2022-07-31T21:55:59.602Z,99370.47
2022-07-31T21:58:28.081Z,99369.16
2022-07-31T22:00:56.951Z,99367.97
2022-07-31T22:03:25.834Z,99375.22
2022-07-31T22:06:12.574Z,99369.91
2022-07-31T22:08:40.823Z,99373.81
2022-07-31T22:11:10.234Z,99368.91
2022-07-31T22:13:38.755Z,99370.56
2022-07-31T22:16:07.617Z,99378.56
2022-07-31T22:18:35.951Z,99372.78
2022-07-31T22:21:07.596Z,99366.19
2022-07-31T22:23:36.639Z,99374.88
2022-07-31T22:26:05.260Z,99371.09
2022-07-31T22:28:34.936Z,99376.25
2022-07-31T22:31:03.545Z,99369.72
2022-07-31T22:33:31.996Z,99375.81
2022-07-31T22:36:02.753Z,99368.59
2022-07-31T22:38:32.418Z,99371.47
2022-07-31T22:41:02.463Z,99371.25
2022-07-31T22:44:13.735Z,99371.25
2022-07-31T22:46:19.176Z,99362.69
2022-07-31T22:48:47.827Z,99365.66
2022-07-31T22:51:16.261Z,99362.41
2022-07-31T22:53:49.162Z,99369.91
2022-07-31T22:56:17.884Z,99366.00
2022-07-31T22:58:46.259Z,99363.53
2022-07-31T23:01:14.550Z,99357.81
2022-07-31T23:03:42.715Z,99362.81
2022-07-31T23:06:30.768Z,99376.97
2022-07-31T23:09:02.091Z,99366.41
2022-07-31T23:11:30.452Z,99370.16
2022-07-31T23:13:58.555Z,99374.63
2022-07-31T23:16:27.420Z,99356.94
2022-07-31T23:18:55.632Z,99361.94
2022-07-31T23:21:23.917Z,99361.81
2022-07-31T23:23:52.057Z,99354.56
2022-07-31T23:26:24.081Z,99362.41
2022-07-31T23:28:52.979Z,99364.66
2022-07-31T23:31:21.917Z,99357.34
2022-07-31T23:33:50.413Z,99360.75
2022-07-31T23:36:21.601Z,99356.03
2022-07-31T23:38:49.781Z,99363.75
2022-07-31T23:41:39.986Z,99357.41
2022-07-31T23:44:09.853Z,99356.34
2022-07-31T23:46:39.580Z,99360.69
2022-07-31T23:49:09.226Z,99361.19
2022-07-31T23:51:37.612Z,99351.50
2022-07-31T23:54:06.369Z,99348.56
2022-07-31T23:56:34.974Z,99352.72
2022-07-31T23:59:03.148Z,99358.31
